sensor_id;sensor_type;location;lat;lon;timestamp;temperature;humidity
14473;DHT22;7322;50.872;4.386;2023-05-19T00:02:48;21.60;99.90
14473;DHT22;7322;50.872;4.386;2023-05-19T00:05:18;21.60;99.90
14473;DHT22;7322;50.872;4.386;2023-05-19T00:07:58;21.50;99.90
14473;DHT22;7322;50.872;4.386;2023-05-19T00:16:38;21.50;99.90
14473;DHT22;7322;50.872;4.386;2023-05-19T00:22:47;21.40;99.90
14473;DHT22;7322;50.872;4.386;2023-05-19T00:25:23;21.50;99.90
14473;DHT22;7322;50.872;4.386;2023-05-19T00:28:04;21.40;99.90
14473;DHT22;7322;50.872;4.386;2023-05-19T00:30:43;21.50;99.90
14473;DHT22;7322;50.872;4.386;2023-05-19T00:33:20;21.50;99.90
14473;DHT22;7322;50.872;4.386;2023-05-19T00:35:49;21.40;99.90
14473;DHT22;7322;50.872;4.386;2023-05-19T00:38:18;21.40;99.90
14473;DHT22;7322;50.872;4.386;2023-05-19T00:40:48;21.40;99.90
14473;DHT22;7322;50.872;4.386;2023-05-19T00:43:18;21.40;99.90
14473;DHT22;7322;50.872;4.386;2023-05-19T00:45:47;21.50;99.90
14473;DHT22;7322;50.872;4.386;2023-05-19T00:48:23;21.40;99.90
14473;DHT22;7322;50.872;4.386;2023-05-19T00:51:03;21.50;99.90
14473;DHT22;7322;50.872;4.386;2023-05-19T00:53:32;21.50;99.90
14473;DHT22;7322;50.872;4.386;2023-05-19T00:56:18;21.40;99.90
14473;DHT22;7322;50.872;4.386;2023-05-19T00:58:50;21.50;99.90
14473;DHT22;7322;50.872;4.386;2023-05-19T01:01:18;21.40;99.90
14473;DHT22;7322;50.872;4.386;2023-05-19T01:03:56;21.40;99.90
14473;DHT22;7322;50.872;4.386;2023-05-19T01:09:32;21.50;99.90
14473;DHT22;7322;50.872;4.386;2023-05-19T01:11:59;21.40;99.90
14473;DHT22;7322;50.872;4.386;2023-05-19T01:14:38;21.40;99.90
14473;DHT22;7322;50.872;4.386;2023-05-19T01:17:20;21.50;99.90
14473;DHT22;7322;50.872;4.386;2023-05-19T01:20:15;21.50;99.90
14473;DHT22;7322;50.872;4.386;2023-05-19T01:23:11;21.50;99.90
14473;DHT22;7322;50.872;4.386;2023-05-19T01:32:22;21.40;99.90
14473;DHT22;7322;50.872;4.386;2023-05-19T01:35:08;21.30;99.90
14473;DHT22;7322;50.872;4.386;2023-05-19T01:37:49;21.40;99.90
14473;DHT22;7322;50.872;4.386;2023-05-19T01:40:18;21.40;99.90
14473;DHT22;7322;50.872;4.386;2023-05-19T01:43:06;21.40;99.90
14473;DHT22;7322;50.872;4.386;2023-05-19T01:45:52;21.40;99.90
14473;DHT22;7322;50.872;4.386;2023-05-19T01:48:49;21.40;99.90
14473;DHT22;7322;50.872;4.386;2023-05-19T01:51:18;21.30;99.90
14473;DHT22;7322;50.872;4.386;2023-05-19T01:53:48;21.30;99.90
14473;DHT22;7322;50.872;4.386;2023-05-19T01:56:24;21.30;99.90
14473;DHT22;7322;50.872;4.386;2023-05-19T01:59:15;21.30;99.90
14473;DHT22;7322;50.872;4.386;2023-05-19T02:01:52;21.30;99.90
14473;DHT22;7322;50.872;4.386;2023-05-19T02:04:58;21.30;99.90
14473;DHT22;7322;50.872;4.386;2023-05-19T02:07:36;21.20;99.90
14473;DHT22;7322;50.872;4.386;2023-05-19T02:10:13;21.20;99.90
14473;DHT22;7322;50.872;4.386;2023-05-19T02:12:45;21.20;99.90
14473;DHT22;7322;50.872;4.386;2023-05-19T02:15:40;21.20;99.90
14473;DHT22;7322;50.872;4.386;2023-05-19T02:18:14;21.20;99.90
14473;DHT22;7322;50.872;4.386;2023-05-19T02:20:44;21.20;99.90
14473;DHT22;7322;50.872;4.386;2023-05-19T02:23:18;21.30;99.90
14473;DHT22;7322;50.872;4.386;2023-05-19T02:26:18;21.20;99.90
14473;DHT22;7322;50.872;4.386;2023-05-19T02:29:21;21.20;99.90
14473;DHT22;7322;50.872;4.386;2023-05-19T02:31:48;21.30;99.90
14473;DHT22;7322;50.872;4.386;2023-05-19T02:34:18;21.20;99.90
14473;DHT22;7322;50.872;4.386;2023-05-19T02:37:00;21.30;99.90
14473;DHT22;7322;50.872;4.386;2023-05-19T02:39:47;21.20;99.90
14473;DHT22;7322;50.872;4.386;2023-05-19T02:45:38;21.30;99.90
14473;DHT22;7322;50.872;4.386;2023-05-19T02:48:11;21.20;99.90
14473;DHT22;7322;50.872;4.386;2023-05-19T02:50:48;21.20;99.90
14473;DHT22;7322;50.872;4.386;2023-05-19T02:53:18;21.30;99.90
14473;DHT22;7322;50.872;4.386;2023-05-19T02:55:48;21.30;99.90
14473;DHT22;7322;50.872;4.386;2023-05-19T02:58:15;21.30;99.90
14473;DHT22;7322;50.872;4.386;2023-05-19T03:01:00;21.30;99.90
14473;DHT22;7322;50.872;4.386;2023-05-19T03:03:29;21.40;99.90
14473;DHT22;7322;50.872;4.386;2023-05-19T03:09:11;21.30;99.90
14473;DHT22;7322;50.872;4.386;2023-05-19T03:11:40;21.30;99.90
14473;DHT22;7322;50.872;4.386;2023-05-19T03:14:18;21.30;99.90
14473;DHT22;7322;50.872;4.386;2023-05-19T03:16:48;21.30;99.90
14473;DHT22;7322;50.872;4.386;2023-05-19T03:19:38;21.30;99.90
14473;DHT22;7322;50.872;4.386;2023-05-19T03:22:15;21.40;99.90
14473;DHT22;7322;50.872;4.386;2023-05-19T03:24:45;21.30;99.90
14473;DHT22;7322;50.872;4.386;2023-05-19T03:27:31;21.30;99.90
14473;DHT22;7322;50.872;4.386;2023-05-19T03:30:13;21.30;99.90
14473;DHT22;7322;50.872;4.386;2023-05-19T03:32:42;21.40;99.90
14473;DHT22;7322;50.872;4.386;2023-05-19T03:35:11;21.30;99.90
14473;DHT22;7322;50.872;4.386;2023-05-19T03:37:39;21.30;99.90
14473;DHT22;7322;50.872;4.386;2023-05-19T03:40:20;21.30;99.90
14473;DHT22;7322;50.872;4.386;2023-05-19T03:42:48;21.40;99.90
14473;DHT22;7322;50.872;4.386;2023-05-19T03:45:21;21.30;99.90
14473;DHT22;7322;50.872;4.386;2023-05-19T03:47:48;21.30;99.90
14473;DHT22;7322;50.872;4.386;2023-05-19T03:50:15;21.30;99.90
14473;DHT22;7322;50.872;4.386;2023-05-19T03:52:48;21.30;99.90
14473;DHT22;7322;50.872;4.386;2023-05-19T03:55:49;21.30;99.90
14473;DHT22;7322;50.872;4.386;2023-05-19T03:58:18;21.30;99.90
14473;DHT22;7322;50.872;4.386;2023-05-19T04:00:53;21.30;99.90
14473;DHT22;7322;50.872;4.386;2023-05-19T04:03:24;21.30;99.90
14473;DHT22;7322;50.872;4.386;2023-05-19T04:08:48;21.30;99.90
14473;DHT22;7322;50.872;4.386;2023-05-19T04:11:20;21.30;99.90
14473;DHT22;7322;50.872;4.386;2023-05-19T04:13:48;21.20;99.90
14473;DHT22;7322;50.872;4.386;2023-05-19T04:19:34;21.20;99.90
14473;DHT22;7322;50.872;4.386;2023-05-19T04:25:18;21.30;99.90
14473;DHT22;7322;50.872;4.386;2023-05-19T04:27:49;21.20;99.90
14473;DHT22;7322;50.872;4.386;2023-05-19T04:30:18;21.20;99.90
14473;DHT22;7322;50.872;4.386;2023-05-19T04:32:48;21.20;99.90
14473;DHT22;7322;50.872;4.386;2023-05-19T04:35:16;21.20;99.90
14473;DHT22;7322;50.872;4.386;2023-05-19T04:37:49;21.20;99.90
14473;DHT22;7322;50.872;4.386;2023-05-19T04:40:19;21.10;99.90
14473;DHT22;7322;50.872;4.386;2023-05-19T04:43:19;21.10;99.90
14473;DHT22;7322;50.872;4.386;2023-05-19T04:45:48;21.20;99.90
14473;DHT22;7322;50.872;4.386;2023-05-19T04:48:26;21.20;99.90
14473;DHT22;7322;50.872;4.386;2023-05-19T04:51:01;21.20;99.90
14473;DHT22;7322;50.872;4.386;2023-05-19T04:53:35;21.20;99.90
14473;DHT22;7322;50.872;4.386;2023-05-19T04:56:16;21.20;99.90
14473;DHT22;7322;50.872;4.386;2023-05-19T04:58:50;21.20;99.90
14473;DHT22;7322;50.872;4.386;2023-05-19T05:01:18;21.20;99.90
14473;DHT22;7322;50.872;4.386;2023-05-19T05:03:48;21.30;99.90
14473;DHT22;7322;50.872;4.386;2023-05-19T05:06:25;21.20;99.90
14473;DHT22;7322;50.872;4.386;2023-05-19T05:09:04;21.20;99.90
14473;DHT22;7322;50.872;4.386;2023-05-19T05:11:45;21.20;99.90
14473;DHT22;7322;50.872;4.386;2023-05-19T05:14:21;21.20;99.90
14473;DHT22;7322;50.872;4.386;2023-05-19T05:16:49;21.20;99.90
14473;DHT22;7322;50.872;4.386;2023-05-19T05:19:18;21.20;99.90
14473;DHT22;7322;50.872;4.386;2023-05-19T05:21:49;21.20;99.90
14473;DHT22;7322;50.872;4.386;2023-05-19T05:24:18;21.20;99.90
14473;DHT22;7322;50.872;4.386;2023-05-19T05:26:48;21.10;99.90
14473;DHT22;7322;50.872;4.386;2023-05-19T05:29:36;21.10;99.90
14473;DHT22;7322;50.872;4.386;2023-05-19T05:32:18;21.20;99.90
14473;DHT22;7322;50.872;4.386;2023-05-19T05:34:45;21.20;99.90
14473;DHT22;7322;50.872;4.386;2023-05-19T05:37:18;21.10;99.90
14473;DHT22;7322;50.872;4.386;2023-05-19T05:39:45;21.10;99.90
14473;DHT22;7322;50.872;4.386;2023-05-19T05:42:18;21.10;99.90
14473;DHT22;7322;50.872;4.386;2023-05-19T05:45:19;21.20;99.90
14473;DHT22;7322;50.872;4.386;2023-05-19T05:47:49;21.20;99.90
14473;DHT22;7322;50.872;4.386;2023-05-19T05:50:17;21.20;99.90
14473;DHT22;7322;50.872;4.386;2023-05-19T05:53:00;21.10;99.90
14473;DHT22;7322;50.872;4.386;2023-05-19T05:55:37;21.20;99.90
14473;DHT22;7322;50.872;4.386;2023-05-19T05:58:13;21.20;99.90
14473;DHT22;7322;50.872;4.386;2023-05-19T06:00:51;21.20;99.90
14473;DHT22;7322;50.872;4.386;2023-05-19T06:03:21;21.20;99.90
14473;DHT22;7322;50.872;4.386;2023-05-19T06:05:48;21.20;99.90
14473;DHT22;7322;50.872;4.386;2023-05-19T06:08:19;21.20;99.90
14473;DHT22;7322;50.872;4.386;2023-05-19T06:11:10;21.20;99.90
14473;DHT22;7322;50.872;4.386;2023-05-19T06:13:54;21.30;99.90
14473;DHT22;7322;50.872;4.386;2023-05-19T06:16:30;21.20;99.90
14473;DHT22;7322;50.872;4.386;2023-05-19T06:19:07;21.20;99.90
14473;DHT22;7322;50.872;4.386;2023-05-19T06:21:35;21.30;99.90
14473;DHT22;7322;50.872;4.386;2023-05-19T06:24:08;21.30;99.90
14473;DHT22;7322;50.872;4.386;2023-05-19T06:26:48;21.30;99.90
14473;DHT22;7322;50.872;4.386;2023-05-19T06:29:29;21.40;99.90
14473;DHT22;7322;50.872;4.386;2023-05-19T06:32:09;21.30;99.90
14473;DHT22;7322;50.872;4.386;2023-05-19T06:34:53;21.30;99.90
14473;DHT22;7322;50.872;4.386;2023-05-19T06:37:39;21.30;99.90
14473;DHT22;7322;50.872;4.386;2023-05-19T06:40:18;21.30;99.90
14473;DHT22;7322;50.872;4.386;2023-05-19T06:43:14;21.30;99.90
14473;DHT22;7322;50.872;4.386;2023-05-19T06:45:48;21.30;99.90
14473;DHT22;7322;50.872;4.386;2023-05-19T06:48:28;21.40;99.90
14473;DHT22;7322;50.872;4.386;2023-05-19T06:51:18;21.30;99.90
14473;DHT22;7322;50.872;4.386;2023-05-19T06:53:48;21.40;99.90
14473;DHT22;7322;50.872;4.386;2023-05-19T06:56:34;21.30;99.90
14473;DHT22;7322;50.872;4.386;2023-05-19T06:59:11;21.40;99.90
14473;DHT22;7322;50.872;4.386;2023-05-19T07:01:48;21.40;99.90
14473;DHT22;7322;50.872;4.386;2023-05-19T07:04:16;21.40;99.90
14473;DHT22;7322;50.872;4.386;2023-05-19T07:10:18;21.40;99.90
14473;DHT22;7322;50.872;4.386;2023-05-19T07:12:51;21.20;99.90
14473;DHT22;7322;50.872;4.386;2023-05-19T07:15:18;21.30;99.90
14473;DHT22;7322;50.872;4.386;2023-05-19T07:17:48;21.30;99.90
14473;DHT22;7322;50.872;4.386;2023-05-19T07:20:29;21.40;99.90
14473;DHT22;7322;50.872;4.386;2023-05-19T07:23:31;21.40;99.90
14473;DHT22;7322;50.872;4.386;2023-05-19T07:26:18;21.40;99.90
14473;DHT22;7322;50.872;4.386;2023-05-19T07:29:03;21.50;99.90
14473;DHT22;7322;50.872;4.386;2023-05-19T07:31:42;21.40;99.90
14473;DHT22;7322;50.872;4.386;2023-05-19T07:34:11;21.30;99.90
14473;DHT22;7322;50.872;4.386;2023-05-19T07:37:03;21.30;99.90
14473;DHT22;7322;50.872;4.386;2023-05-19T07:39:33;21.30;99.90
14473;DHT22;7322;50.872;4.386;2023-05-19T07:42:08;21.30;99.90
14473;DHT22;7322;50.872;4.386;2023-05-19T07:44:35;21.30;99.90
14473;DHT22;7322;50.872;4.386;2023-05-19T07:47:04;21.40;99.90
14473;DHT22;7322;50.872;4.386;2023-05-19T07:52:35;21.40;99.90
14473;DHT22;7322;50.872;4.386;2023-05-19T07:55:18;21.50;99.90
14473;DHT22;7322;50.872;4.386;2023-05-19T07:57:48;21.40;99.90
14473;DHT22;7322;50.872;4.386;2023-05-19T08:00:22;21.50;99.90
14473;DHT22;7322;50.872;4.386;2023-05-19T08:06:00;21.60;99.90
14473;DHT22;7322;50.872;4.386;2023-05-19T08:08:29;21.50;99.90
14473;DHT22;7322;50.872;4.386;2023-05-19T08:11:16;21.60;99.90
14473;DHT22;7322;50.872;4.386;2023-05-19T08:13:54;21.60;99.90
14473;DHT22;7322;50.872;4.386;2023-05-19T08:16:27;21.60;99.90
14473;DHT22;7322;50.872;4.386;2023-05-19T08:18:56;21.60;99.90
14473;DHT22;7322;50.872;4.386;2023-05-19T08:21:27;21.60;99.90
14473;DHT22;7322;50.872;4.386;2023-05-19T08:24:19;21.60;99.90
14473;DHT22;7322;50.872;4.386;2023-05-19T08:26:53;21.60;99.90
14473;DHT22;7322;50.872;4.386;2023-05-19T08:29:32;21.60;99.90
14473;DHT22;7322;50.872;4.386;2023-05-19T08:32:25;21.60;99.90
14473;DHT22;7322;50.872;4.386;2023-05-19T08:35:00;21.60;99.90
14473;DHT22;7322;50.872;4.386;2023-05-19T08:37:34;21.60;99.90
14473;DHT22;7322;50.872;4.386;2023-05-19T08:40:32;21.60;99.90
14473;DHT22;7322;50.872;4.386;2023-05-19T08:43:18;21.60;99.90
14473;DHT22;7322;50.872;4.386;2023-05-19T08:45:58;21.60;99.90
14473;DHT22;7322;50.872;4.386;2023-05-19T08:48:28;21.60;99.90
14473;DHT22;7322;50.872;4.386;2023-05-19T08:51:10;21.60;99.90
14473;DHT22;7322;50.872;4.386;2023-05-19T08:53:49;21.70;99.90
14473;DHT22;7322;50.872;4.386;2023-05-19T08:56:21;21.60;99.90
14473;DHT22;7322;50.872;4.386;2023-05-19T09:01:59;21.60;99.90
14473;DHT22;7322;50.872;4.386;2023-05-19T09:04:27;21.50;99.90
14473;DHT22;7322;50.872;4.386;2023-05-19T09:06:59;21.50;99.90
14473;DHT22;7322;50.872;4.386;2023-05-19T09:09:31;21.60;99.90
14473;DHT22;7322;50.872;4.386;2023-05-19T09:12:19;21.60;99.90
14473;DHT22;7322;50.872;4.386;2023-05-19T09:14:48;21.70;99.90
14473;DHT22;7322;50.872;4.386;2023-05-19T09:17:31;21.70;99.90
14473;DHT22;7322;50.872;4.386;2023-05-19T09:20:06;21.70;99.90
14473;DHT22;7322;50.872;4.386;2023-05-19T09:22:49;21.70;99.90
14473;DHT22;7322;50.872;4.386;2023-05-19T09:25:19;21.70;99.90
14473;DHT22;7322;50.872;4.386;2023-05-19T09:27:58;21.70;99.90
14473;DHT22;7322;50.872;4.386;2023-05-19T09:30:48;21.80;99.90
14473;DHT22;7322;50.872;4.386;2023-05-19T09:33:27;21.80;99.90
14473;DHT22;7322;50.872;4.386;2023-05-19T09:35:54;21.70;99.90
14473;DHT22;7322;50.872;4.386;2023-05-19T09:38:32;21.80;99.90
14473;DHT22;7322;50.872;4.386;2023-05-19T09:41:03;21.80;99.90
14473;DHT22;7322;50.872;4.386;2023-05-19T09:46:51;21.80;99.90
14473;DHT22;7322;50.872;4.386;2023-05-19T09:49:19;21.80;99.90
14473;DHT22;7322;50.872;4.386;2023-05-19T09:51:55;21.80;99.90
14473;DHT22;7322;50.872;4.386;2023-05-19T09:54:30;21.80;99.90
14473;DHT22;7322;50.872;4.386;2023-05-19T09:57:05;21.80;99.90
14473;DHT22;7322;50.872;4.386;2023-05-19T09:59:42;21.80;99.90
14473;DHT22;7322;50.872;4.386;2023-05-19T10:02:19;21.90;99.90
14473;DHT22;7322;50.872;4.386;2023-05-19T10:04:49;21.90;99.90
14473;DHT22;7322;50.872;4.386;2023-05-19T10:07:18;21.90;99.90
14473;DHT22;7322;50.872;4.386;2023-05-19T10:09:49;21.90;99.90
14473;DHT22;7322;50.872;4.386;2023-05-19T10:12:19;21.90;99.90
14473;DHT22;7322;50.872;4.386;2023-05-19T10:14:48;22.00;99.90
14473;DHT22;7322;50.872;4.386;2023-05-19T10:17:19;22.00;99.90
14473;DHT22;7322;50.872;4.386;2023-05-19T10:19:49;22.00;99.90
14473;DHT22;7322;50.872;4.386;2023-05-19T10:22:48;22.00;99.90
14473;DHT22;7322;50.872;4.386;2023-05-19T10:25:27;22.00;99.90
14473;DHT22;7322;50.872;4.386;2023-05-19T10:28:06;22.00;99.90
14473;DHT22;7322;50.872;4.386;2023-05-19T10:37:26;22.00;99.90
14473;DHT22;7322;50.872;4.386;2023-05-19T10:40:09;22.00;99.90
14473;DHT22;7322;50.872;4.386;2023-05-19T10:42:58;22.10;99.90
14473;DHT22;7322;50.872;4.386;2023-05-19T10:45:46;22.10;99.90
14473;DHT22;7322;50.872;4.386;2023-05-19T10:48:47;22.00;99.90
14473;DHT22;7322;50.872;4.386;2023-05-19T10:54:49;22.10;99.90
14473;DHT22;7322;50.872;4.386;2023-05-19T10:57:19;22.00;99.90
14473;DHT22;7322;50.872;4.386;2023-05-19T10:59:57;22.00;99.90
14473;DHT22;7322;50.872;4.386;2023-05-19T11:02:44;22.10;99.90
14473;DHT22;7322;50.872;4.386;2023-05-19T11:05:27;22.10;99.90
14473;DHT22;7322;50.872;4.386;2023-05-19T11:08:23;22.10;99.90
14473;DHT22;7322;50.872;4.386;2023-05-19T11:11:12;22.10;99.90
14473;DHT22;7322;50.872;4.386;2023-05-19T11:13:49;22.10;99.90
14473;DHT22;7322;50.872;4.386;2023-05-19T11:16:25;22.20;99.90
14473;DHT22;7322;50.872;4.386;2023-05-19T11:19:17;22.20;99.90
14473;DHT22;7322;50.872;4.386;2023-05-19T11:21:48;22.20;99.90
14473;DHT22;7322;50.872;4.386;2023-05-19T11:24:48;22.10;99.90
14473;DHT22;7322;50.872;4.386;2023-05-19T11:27:21;22.20;99.90
14473;DHT22;7322;50.872;4.386;2023-05-19T11:29:49;22.10;99.90
14473;DHT22;7322;50.872;4.386;2023-05-19T11:32:19;22.20;99.90
14473;DHT22;7322;50.872;4.386;2023-05-19T11:34:48;22.20;99.90
14473;DHT22;7322;50.872;4.386;2023-05-19T11:37:16;22.10;99.90
14473;DHT22;7322;50.872;4.386;2023-05-19T11:40:03;22.20;99.90
14473;DHT22;7322;50.872;4.386;2023-05-19T11:42:50;22.20;99.90
14473;DHT22;7322;50.872;4.386;2023-05-19T11:45:23;22.30;99.90
14473;DHT22;7322;50.872;4.386;2023-05-19T11:48:10;22.20;99.90
14473;DHT22;7322;50.872;4.386;2023-05-19T11:50:49;22.20;99.90
14473;DHT22;7322;50.872;4.386;2023-05-19T11:53:19;22.20;99.90
14473;DHT22;7322;50.872;4.386;2023-05-19T11:55:48;22.20;99.90
14473;DHT22;7322;50.872;4.386;2023-05-19T11:58:16;22.20;99.90
14473;DHT22;7322;50.872;4.386;2023-05-19T12:01:03;22.20;99.90
14473;DHT22;7322;50.872;4.386;2023-05-19T12:03:37;22.20;99.90
14473;DHT22;7322;50.872;4.386;2023-05-19T12:06:11;22.20;99.90
14473;DHT22;7322;50.872;4.386;2023-05-19T12:09:08;22.20;99.90
14473;DHT22;7322;50.872;4.386;2023-05-19T12:11:37;22.20;99.90
14473;DHT22;7322;50.872;4.386;2023-05-19T12:14:06;22.20;99.90
14473;DHT22;7322;50.872;4.386;2023-05-19T12:16:47;22.10;99.90
14473;DHT22;7322;50.872;4.386;2023-05-19T12:19:47;22.20;99.90
14473;DHT22;7322;50.872;4.386;2023-05-19T12:22:19;22.20;99.90
14473;DHT22;7322;50.872;4.386;2023-05-19T12:24:48;22.20;99.90
14473;DHT22;7322;50.872;4.386;2023-05-19T12:27:19;22.20;99.90
14473;DHT22;7322;50.872;4.386;2023-05-19T12:30:23;22.20;99.90
14473;DHT22;7322;50.872;4.386;2023-05-19T12:32:53;22.30;99.90
14473;DHT22;7322;50.872;4.386;2023-05-19T12:35:28;22.30;99.90
14473;DHT22;7322;50.872;4.386;2023-05-19T12:37:55;22.30;99.90
14473;DHT22;7322;50.872;4.386;2023-05-19T12:40:29;22.30;99.90
14473;DHT22;7322;50.872;4.386;2023-05-19T12:43:02;22.30;99.90
14473;DHT22;7322;50.872;4.386;2023-05-19T12:45:34;22.30;99.90
14473;DHT22;7322;50.872;4.386;2023-05-19T12:48:21;22.30;99.90
14473;DHT22;7322;50.872;4.386;2023-05-19T12:50:51;22.30;99.90
14473;DHT22;7322;50.872;4.386;2023-05-19T12:53:18;22.20;99.90
14473;DHT22;7322;50.872;4.386;2023-05-19T12:55:55;22.20;99.90
14473;DHT22;7322;50.872;4.386;2023-05-19T12:58:32;22.20;99.90
14473;DHT22;7322;50.872;4.386;2023-05-19T13:01:19;22.30;99.90
14473;DHT22;7322;50.872;4.386;2023-05-19T13:03:48;22.30;99.90
14473;DHT22;7322;50.872;4.386;2023-05-19T13:06:18;22.20;99.90
14473;DHT22;7322;50.872;4.386;2023-05-19T13:08:48;22.20;99.90
14473;DHT22;7322;50.872;4.386;2023-05-19T13:11:17;22.20;99.90
14473;DHT22;7322;50.872;4.386;2023-05-19T13:13:48;22.20;99.90
14473;DHT22;7322;50.872;4.386;2023-05-19T13:16:31;22.20;99.90
14473;DHT22;7322;50.872;4.386;2023-05-19T13:19:17;22.30;99.90
14473;DHT22;7322;50.872;4.386;2023-05-19T13:22:03;22.30;99.90
14473;DHT22;7322;50.872;4.386;2023-05-19T13:24:32;22.30;99.90
14473;DHT22;7322;50.872;4.386;2023-05-19T13:27:05;22.20;99.90
14473;DHT22;7322;50.872;4.386;2023-05-19T13:29:34;22.30;99.90
14473;DHT22;7322;50.872;4.386;2023-05-19T13:32:03;22.30;99.90
14473;DHT22;7322;50.872;4.386;2023-05-19T13:34:30;22.30;99.90
14473;DHT22;7322;50.872;4.386;2023-05-19T13:37:05;22.20;99.90
14473;DHT22;7322;50.872;4.386;2023-05-19T13:39:38;22.30;99.90
14473;DHT22;7322;50.872;4.386;2023-05-19T13:42:07;22.30;99.90
14473;DHT22;7322;50.872;4.386;2023-05-19T13:44:35;22.30;99.90
14473;DHT22;7322;50.872;4.386;2023-05-19T13:47:04;22.30;99.90
14473;DHT22;7322;50.872;4.386;2023-05-19T13:49:35;22.30;99.90
14473;DHT22;7322;50.872;4.386;2023-05-19T13:52:05;22.30;99.90
14473;DHT22;7322;50.872;4.386;2023-05-19T13:54:34;22.30;99.90
14473;DHT22;7322;50.872;4.386;2023-05-19T13:57:02;22.30;99.90
14473;DHT22;7322;50.872;4.386;2023-05-19T13:59:32;22.30;99.90
14473;DHT22;7322;50.872;4.386;2023-05-19T14:02:38;22.30;99.90
14473;DHT22;7322;50.872;4.386;2023-05-19T14:05:18;22.30;99.90
14473;DHT22;7322;50.872;4.386;2023-05-19T14:08:02;22.30;99.90
14473;DHT22;7322;50.872;4.386;2023-05-19T14:10:35;22.30;99.90
14473;DHT22;7322;50.872;4.386;2023-05-19T14:13:18;22.30;99.90
14473;DHT22;7322;50.872;4.386;2023-05-19T14:15:48;22.30;99.90
14473;DHT22;7322;50.872;4.386;2023-05-19T14:18:33;22.30;99.90
14473;DHT22;7322;50.872;4.386;2023-05-19T14:21:07;22.30;99.90
14473;DHT22;7322;50.872;4.386;2023-05-19T14:23:36;22.30;99.90
14473;DHT22;7322;50.872;4.386;2023-05-19T14:26:04;22.30;99.90
14473;DHT22;7322;50.872;4.386;2023-05-19T14:28:41;22.30;99.90
14473;DHT22;7322;50.872;4.386;2023-05-19T14:31:18;22.40;99.90
14473;DHT22;7322;50.872;4.386;2023-05-19T14:33:50;22.40;99.90
14473;DHT22;7322;50.872;4.386;2023-05-19T14:36:19;22.40;99.90
14473;DHT22;7322;50.872;4.386;2023-05-19T14:39:18;22.40;99.90
14473;DHT22;7322;50.872;4.386;2023-05-19T14:41:48;22.40;99.90
14473;DHT22;7322;50.872;4.386;2023-05-19T14:44:18;22.30;99.90
14473;DHT22;7322;50.872;4.386;2023-05-19T14:47:02;22.40;99.90
14473;DHT22;7322;50.872;4.386;2023-05-19T14:49:41;22.40;99.90
14473;DHT22;7322;50.872;4.386;2023-05-19T14:52:10;22.40;99.90
14473;DHT22;7322;50.872;4.386;2023-05-19T14:57:47;22.40;99.90
14473;DHT22;7322;50.872;4.386;2023-05-19T15:00:18;22.40;99.90
14473;DHT22;7322;50.872;4.386;2023-05-19T15:03:18;22.40;99.90
14473;DHT22;7322;50.872;4.386;2023-05-19T15:05:50;22.40;99.90
14473;DHT22;7322;50.872;4.386;2023-05-19T15:08:19;22.40;99.90
14473;DHT22;7322;50.872;4.386;2023-05-19T15:10:57;22.40;99.90
14473;DHT22;7322;50.872;4.386;2023-05-19T15:13:48;22.40;99.90
14473;DHT22;7322;50.872;4.386;2023-05-19T15:16:18;22.40;99.90
14473;DHT22;7322;50.872;4.386;2023-05-19T15:19:18;22.40;99.90
14473;DHT22;7322;50.872;4.386;2023-05-19T15:21:49;22.50;99.90
14473;DHT22;7322;50.872;4.386;2023-05-19T15:24:18;22.40;99.90
14473;DHT22;7322;50.872;4.386;2023-05-19T15:26:54;22.50;99.90
14473;DHT22;7322;50.872;4.386;2023-05-19T15:29:31;22.50;99.90
14473;DHT22;7322;50.872;4.386;2023-05-19T15:32:18;22.50;99.90
14473;DHT22;7322;50.872;4.386;2023-05-19T15:34:48;22.50;99.90
14473;DHT22;7322;50.872;4.386;2023-05-19T15:40:32;22.50;99.90
14473;DHT22;7322;50.872;4.386;2023-05-19T15:43:05;22.50;99.90
14473;DHT22;7322;50.872;4.386;2023-05-19T15:45:33;22.50;99.90
14473;DHT22;7322;50.872;4.386;2023-05-19T15:48:08;22.50;99.90
14473;DHT22;7322;50.872;4.386;2023-05-19T15:50:49;22.50;99.90
14473;DHT22;7322;50.872;4.386;2023-05-19T15:53:19;22.50;99.90
14473;DHT22;7322;50.872;4.386;2023-05-19T15:56:05;22.50;99.90
14473;DHT22;7322;50.872;4.386;2023-05-19T15:58:48;22.60;99.90
14473;DHT22;7322;50.872;4.386;2023-05-19T16:01:18;22.50;99.90
14473;DHT22;7322;50.872;4.386;2023-05-19T16:03:46;22.50;99.90
14473;DHT22;7322;50.872;4.386;2023-05-19T16:06:26;22.50;99.90
14473;DHT22;7322;50.872;4.386;2023-05-19T16:11:46;22.50;99.90
14473;DHT22;7322;50.872;4.386;2023-05-19T16:14:37;22.50;99.90
14473;DHT22;7322;50.872;4.386;2023-05-19T16:17:10;22.60;99.90
14473;DHT22;7322;50.872;4.386;2023-05-19T16:19:55;22.50;99.90
14473;DHT22;7322;50.872;4.386;2023-05-19T16:25:48;22.60;99.90
14473;DHT22;7322;50.872;4.386;2023-05-19T16:28:29;22.70;99.90
14473;DHT22;7322;50.872;4.386;2023-05-19T16:31:10;22.70;99.90
14473;DHT22;7322;50.872;4.386;2023-05-19T16:33:39;22.80;99.90
14473;DHT22;7322;50.872;4.386;2023-05-19T16:36:30;22.90;99.90
14473;DHT22;7322;50.872;4.386;2023-05-19T16:39:06;23.00;99.90
14473;DHT22;7322;50.872;4.386;2023-05-19T16:41:49;23.10;99.90
14473;DHT22;7322;50.872;4.386;2023-05-19T16:44:19;23.10;99.90
14473;DHT22;7322;50.872;4.386;2023-05-19T16:46:46;23.20;99.90
14473;DHT22;7322;50.872;4.386;2023-05-19T16:49:18;23.20;99.90
14473;DHT22;7322;50.872;4.386;2023-05-19T16:51:46;23.30;99.90
14473;DHT22;7322;50.872;4.386;2023-05-19T16:54:13;23.40;99.90
14473;DHT22;7322;50.872;4.386;2023-05-19T16:56:44;23.50;99.90
14473;DHT22;7322;50.872;4.386;2023-05-19T16:59:20;23.60;99.90
14473;DHT22;7322;50.872;4.386;2023-05-19T17:01:53;23.60;99.90
14473;DHT22;7322;50.872;4.386;2023-05-19T17:04:23;23.70;99.90
14473;DHT22;7322;50.872;4.386;2023-05-19T17:06:52;23.80;99.90
14473;DHT22;7322;50.872;4.386;2023-05-19T17:09:38;23.80;99.90
14473;DHT22;7322;50.872;4.386;2023-05-19T17:12:06;24.00;99.90
14473;DHT22;7322;50.872;4.386;2023-05-19T17:14:43;24.00;99.90
14473;DHT22;7322;50.872;4.386;2023-05-19T17:17:10;24.10;99.90
14473;DHT22;7322;50.872;4.386;2023-05-19T17:19:48;24.10;99.90
14473;DHT22;7322;50.872;4.386;2023-05-19T17:22:32;24.20;99.90
14473;DHT22;7322;50.872;4.386;2023-05-19T17:25:13;24.30;99.90
14473;DHT22;7322;50.872;4.386;2023-05-19T17:27:47;24.30;99.90
14473;DHT22;7322;50.872;4.386;2023-05-19T17:30:25;24.30;99.90
14473;DHT22;7322;50.872;4.386;2023-05-19T17:32:59;24.30;99.90
14473;DHT22;7322;50.872;4.386;2023-05-19T17:35:27;24.20;99.90
14473;DHT22;7322;50.872;4.386;2023-05-19T17:38:21;24.10;99.90
14473;DHT22;7322;50.872;4.386;2023-05-19T17:40:48;24.00;99.90
14473;DHT22;7322;50.872;4.386;2023-05-19T17:43:18;23.80;99.90
14473;DHT22;7322;50.872;4.386;2023-05-19T17:45:58;23.80;99.90
14473;DHT22;7322;50.872;4.386;2023-05-19T17:48:32;23.70;99.90
14473;DHT22;7322;50.872;4.386;2023-05-19T17:51:02;23.50;99.90
14473;DHT22;7322;50.872;4.386;2023-05-19T17:53:49;23.50;99.90
14473;DHT22;7322;50.872;4.386;2023-05-19T17:56:23;23.40;99.90
14473;DHT22;7322;50.872;4.386;2023-05-19T17:59:18;23.40;99.90